Port Stanley — V7EE9 — position and weather

sailwx.info

Track history (hours):
 
Tides and Currents Weather Stations Pressure Air Temp Water Temp Dewpoint Dewpoint Depression Visibility Wind Speed Wind Dir Waves Ship Positions

Port Stanley

Last reported at 2016-Dec-06 17:27 UTC. Time now 2016-Dec-06 17:56 UTC.
Position N 24°08' E 118°27'.

Length 183 m; draft 12.1 m.

Type: Ship. MMSI: 538090299.

Date/timePositionNaut miles runAvg speedWind from/ knotsBaromVisibWave heightAir tempDewpointWater temp
2016-Dec-06 17:27N 24°08' E 118°27'1010.6
2016-Dec-06 16:34N 24°02' E 118°18'1010.4
2016-Dec-06 15:33N 23°55' E 118°10'1010.0
2016-Dec-06 14:33N 23°47' E 118°03'  
2016-Nov-30 03:21N 23°60' E 118°16'8 9.3
2016-Nov-30 02:31N 24°05' E 118°22'1312.8
2016-Nov-30 01:31N 24°12' E 118°34'1312.9
2016-Nov-30 00:32N 24°19' E 118°45'1312.8
2016-Nov-29 23:31N 24°27' E 118°57'1212.5
2016-Nov-29 22:33N 24°34' E 119°08'  
Track history (hours):
 
Tides and Currents Weather Stations Pressure Air Temp Water Temp Dewpoint Dewpoint Depression Visibility Wind Speed Wind Dir Waves Ship Positions

Port Stanley

Last reported at 2016-Dec-06 17:27 UTC. Time now 2016-Dec-06 17:56 UTC.
Position N 24°08' E 118°27'.

Length 183 m; draft 12.1 m.

Type: Ship. MMSI: 538090299.

Date/timePositionNaut miles runAvg speedWind from/ knotsBaromVisibWave heightAir tempDewpointWater temp
2016-Dec-06 17:27N 24°08' E 118°27'1010.6
2016-Dec-06 16:34N 24°02' E 118°18'1010.4
2016-Dec-06 15:33N 23°55' E 118°10'1010.0
2016-Dec-06 14:33N 23°47' E 118°03'  
2016-Nov-30 03:21N 23°60' E 118°16'8 9.3
2016-Nov-30 02:31N 24°05' E 118°22'1312.8
2016-Nov-30 01:31N 24°12' E 118°34'1312.9
2016-Nov-30 00:32N 24°19' E 118°45'1312.8
2016-Nov-29 23:31N 24°27' E 118°57'1212.5
2016-Nov-29 22:33N 24°34' E 119°08'  

Dump ship's entire track history